sensor_id;sensor_type;location;lat;lon;timestamp;P1;durP1;ratioP1;P2;durP2;ratioP2
32216;SDS011;18709;51.140;4.088;2022-10-16T00:00:57;5.97;;;1.85;;
32216;SDS011;18709;51.140;4.088;2022-10-16T00:03:22;7.13;;;1.77;;
32216;SDS011;18709;51.140;4.088;2022-10-16T00:05:48;1.88;;;1.27;;
32216;SDS011;18709;51.140;4.088;2022-10-16T00:08:14;3.72;;;1.63;;
32216;SDS011;18709;51.140;4.088;2022-10-16T00:10:40;3.88;;;1.80;;
32216;SDS011;18709;51.140;4.088;2022-10-16T00:13:06;4.07;;;1.50;;
32216;SDS011;18709;51.140;4.088;2022-10-16T00:15:35;4.35;;;1.50;;
32216;SDS011;18709;51.140;4.088;2022-10-16T00:18:02;3.70;;;1.80;;
32216;SDS011;18709;51.140;4.088;2022-10-16T00:20:29;4.68;;;1.48;;
32216;SDS011;18709;51.140;4.088;2022-10-16T00:22:56;2.47;;;1.20;;
32216;SDS011;18709;51.140;4.088;2022-10-16T00:25:22;3.75;;;1.02;;
32216;SDS011;18709;51.140;4.088;2022-10-16T00:27:48;3.22;;;1.60;;
32216;SDS011;18709;51.140;4.088;2022-10-16T00:30:13;3.83;;;1.17;;
32216;SDS011;18709;51.140;4.088;2022-10-16T00:32:39;3.00;;;1.40;;
32216;SDS011;18709;51.140;4.088;2022-10-16T00:35:05;8.05;;;1.52;;
32216;SDS011;18709;51.140;4.088;2022-10-16T00:37:31;3.28;;;1.38;;
32216;SDS011;18709;51.140;4.088;2022-10-16T00:39:57;3.05;;;1.23;;
32216;SDS011;18709;51.140;4.088;2022-10-16T00:42:22;3.00;;;1.75;;
32216;SDS011;18709;51.140;4.088;2022-10-16T00:44:50;2.78;;;1.27;;
32216;SDS011;18709;51.140;4.088;2022-10-16T00:47:18;1.70;;;1.05;;
32216;SDS011;18709;51.140;4.088;2022-10-16T00:49:47;2.92;;;0.93;;
32216;SDS011;18709;51.140;4.088;2022-10-16T00:52:16;2.55;;;1.15;;
32216;SDS011;18709;51.140;4.088;2022-10-16T00:54:43;5.47;;;1.42;;
32216;SDS011;18709;51.140;4.088;2022-10-16T00:57:11;3.10;;;1.40;;
32216;SDS011;18709;51.140;4.088;2022-10-16T00:59:38;5.22;;;1.50;;
32216;SDS011;18709;51.140;4.088;2022-10-16T01:02:06;2.47;;;1.20;;
32216;SDS011;18709;51.140;4.088;2022-10-16T01:09:50;1.92;;;1.40;;
32216;SDS011;18709;51.140;4.088;2022-10-16T01:12:28;3.90;;;1.40;;
32216;SDS011;18709;51.140;4.088;2022-10-16T01:17:53;1.95;;;1.25;;
32216;SDS011;18709;51.140;4.088;2022-10-16T01:20:35;3.13;;;1.50;;
32216;SDS011;18709;51.140;4.088;2022-10-16T01:26:13;2.00;;;1.10;;
32216;SDS011;18709;51.140;4.088;2022-10-16T01:29:02;1.90;;;0.98;;
32216;SDS011;18709;51.140;4.088;2022-10-16T01:31:33;3.03;;;0.98;;
32216;SDS011;18709;51.140;4.088;2022-10-16T01:34:04;2.63;;;1.23;;
32216;SDS011;18709;51.140;4.088;2022-10-16T01:36:39;4.18;;;1.20;;
32216;SDS011;18709;51.140;4.088;2022-10-16T01:39:09;2.88;;;1.10;;
32216;SDS011;18709;51.140;4.088;2022-10-16T01:41:38;4.35;;;1.30;;
32216;SDS011;18709;51.140;4.088;2022-10-16T01:44:14;5.90;;;1.38;;
32216;SDS011;18709;51.140;4.088;2022-10-16T01:46:44;3.88;;;0.93;;
32216;SDS011;18709;51.140;4.088;2022-10-16T01:49:13;2.10;;;1.00;;
32216;SDS011;18709;51.140;4.088;2022-10-16T01:51:41;1.65;;;0.82;;
32216;SDS011;18709;51.140;4.088;2022-10-16T01:54:10;6.47;;;1.33;;
32216;SDS011;18709;51.140;4.088;2022-10-16T01:56:37;5.38;;;1.05;;
32216;SDS011;18709;51.140;4.088;2022-10-16T01:59:11;2.47;;;1.00;;
32216;SDS011;18709;51.140;4.088;2022-10-16T02:01:41;4.80;;;1.20;;
32216;SDS011;18709;51.140;4.088;2022-10-16T02:04:15;2.22;;;1.40;;
32216;SDS011;18709;51.140;4.088;2022-10-16T02:06:42;2.05;;;1.13;;
32216;SDS011;18709;51.140;4.088;2022-10-16T02:09:08;3.97;;;1.05;;
32216;SDS011;18709;51.140;4.088;2022-10-16T02:11:34;3.45;;;0.95;;
32216;SDS011;18709;51.140;4.088;2022-10-16T02:14:06;2.05;;;1.08;;
32216;SDS011;18709;51.140;4.088;2022-10-16T02:16:42;3.78;;;1.10;;
32216;SDS011;18709;51.140;4.088;2022-10-16T02:19:15;3.63;;;1.00;;
32216;SDS011;18709;51.140;4.088;2022-10-16T02:21:58;3.55;;;1.02;;
32216;SDS011;18709;51.140;4.088;2022-10-16T02:29:37;3.08;;;1.40;;
32216;SDS011;18709;51.140;4.088;2022-10-16T02:32:09;3.20;;;1.23;;
32216;SDS011;18709;51.140;4.088;2022-10-16T02:34:37;4.10;;;1.48;;
32216;SDS011;18709;51.140;4.088;2022-10-16T02:37:05;5.55;;;1.35;;
32216;SDS011;18709;51.140;4.088;2022-10-16T02:39:32;4.68;;;1.10;;
32216;SDS011;18709;51.140;4.088;2022-10-16T02:41:59;7.88;;;1.25;;
32216;SDS011;18709;51.140;4.088;2022-10-16T02:44:25;4.32;;;1.67;;
32216;SDS011;18709;51.140;4.088;2022-10-16T02:46:50;2.22;;;1.00;;
32216;SDS011;18709;51.140;4.088;2022-10-16T02:49:16;2.50;;;1.50;;
32216;SDS011;18709;51.140;4.088;2022-10-16T02:51:42;6.40;;;1.10;;
32216;SDS011;18709;51.140;4.088;2022-10-16T02:54:08;2.35;;;0.90;;
32216;SDS011;18709;51.140;4.088;2022-10-16T02:56:34;2.67;;;1.27;;
32216;SDS011;18709;51.140;4.088;2022-10-16T02:58:59;1.10;;;1.00;;
32216;SDS011;18709;51.140;4.088;2022-10-16T03:01:25;4.35;;;1.20;;
32216;SDS011;18709;51.140;4.088;2022-10-16T03:03:51;4.15;;;1.23;;
32216;SDS011;18709;51.140;4.088;2022-10-16T03:06:16;7.32;;;1.25;;
32216;SDS011;18709;51.140;4.088;2022-10-16T03:08:42;4.90;;;1.30;;
32216;SDS011;18709;51.140;4.088;2022-10-16T03:11:08;4.28;;;1.92;;
32216;SDS011;18709;51.140;4.088;2022-10-16T03:13:34;3.33;;;1.38;;
32216;SDS011;18709;51.140;4.088;2022-10-16T03:15:59;2.05;;;1.52;;
32216;SDS011;18709;51.140;4.088;2022-10-16T03:18:25;5.57;;;1.20;;
32216;SDS011;18709;51.140;4.088;2022-10-16T03:20:51;5.68;;;1.70;;
32216;SDS011;18709;51.140;4.088;2022-10-16T03:23:16;5.82;;;1.65;;
32216;SDS011;18709;51.140;4.088;2022-10-16T03:25:42;4.60;;;1.55;;
32216;SDS011;18709;51.140;4.088;2022-10-16T03:28:07;3.40;;;1.45;;
32216;SDS011;18709;51.140;4.088;2022-10-16T03:30:34;1.75;;;1.15;;
32216;SDS011;18709;51.140;4.088;2022-10-16T03:32:59;5.28;;;1.98;;
32216;SDS011;18709;51.140;4.088;2022-10-16T03:35:25;6.50;;;1.90;;
32216;SDS011;18709;51.140;4.088;2022-10-16T03:37:51;4.85;;;1.50;;
32216;SDS011;18709;51.140;4.088;2022-10-16T03:40:16;4.05;;;1.85;;
32216;SDS011;18709;51.140;4.088;2022-10-16T03:42:43;4.10;;;1.73;;
32216;SDS011;18709;51.140;4.088;2022-10-16T03:45:09;9.45;;;2.00;;
32216;SDS011;18709;51.140;4.088;2022-10-16T03:47:35;2.55;;;1.73;;
32216;SDS011;18709;51.140;4.088;2022-10-16T03:50:01;4.22;;;1.70;;
32216;SDS011;18709;51.140;4.088;2022-10-16T03:52:27;5.97;;;1.92;;
32216;SDS011;18709;51.140;4.088;2022-10-16T03:54:53;5.97;;;1.80;;
32216;SDS011;18709;51.140;4.088;2022-10-16T03:57:18;3.92;;;1.58;;
32216;SDS011;18709;51.140;4.088;2022-10-16T03:59:45;5.28;;;2.05;;
32216;SDS011;18709;51.140;4.088;2022-10-16T04:02:11;4.13;;;1.60;;
32216;SDS011;18709;51.140;4.088;2022-10-16T04:04:37;3.63;;;1.63;;
32216;SDS011;18709;51.140;4.088;2022-10-16T04:07:02;2.67;;;1.77;;
32216;SDS011;18709;51.140;4.088;2022-10-16T04:09:28;6.28;;;1.80;;
32216;SDS011;18709;51.140;4.088;2022-10-16T04:11:54;3.92;;;1.48;;
32216;SDS011;18709;51.140;4.088;2022-10-16T04:14:20;6.20;;;1.75;;
32216;SDS011;18709;51.140;4.088;2022-10-16T04:16:45;3.28;;;1.88;;
32216;SDS011;18709;51.140;4.088;2022-10-16T04:19:11;6.50;;;1.80;;
32216;SDS011;18709;51.140;4.088;2022-10-16T04:21:37;4.38;;;1.90;;
32216;SDS011;18709;51.140;4.088;2022-10-16T04:24:03;3.72;;;1.50;;
32216;SDS011;18709;51.140;4.088;2022-10-16T04:26:29;6.30;;;1.98;;
32216;SDS011;18709;51.140;4.088;2022-10-16T04:28:54;5.25;;;1.40;;
32216;SDS011;18709;51.140;4.088;2022-10-16T04:31:20;4.13;;;1.90;;
32216;SDS011;18709;51.140;4.088;2022-10-16T04:33:47;4.07;;;1.58;;
32216;SDS011;18709;51.140;4.088;2022-10-16T04:36:12;3.53;;;1.58;;
32216;SDS011;18709;51.140;4.088;2022-10-16T04:38:38;6.28;;;2.00;;
32216;SDS011;18709;51.140;4.088;2022-10-16T04:41:05;2.47;;;1.70;;
32216;SDS011;18709;51.140;4.088;2022-10-16T04:43:31;4.07;;;1.63;;
32216;SDS011;18709;51.140;4.088;2022-10-16T04:45:58;7.22;;;2.13;;
32216;SDS011;18709;51.140;4.088;2022-10-16T04:48:23;4.70;;;1.88;;
32216;SDS011;18709;51.140;4.088;2022-10-16T04:50:49;7.30;;;1.80;;
32216;SDS011;18709;51.140;4.088;2022-10-16T04:53:15;6.40;;;1.92;;
32216;SDS011;18709;51.140;4.088;2022-10-16T04:55:41;5.20;;;1.65;;
32216;SDS011;18709;51.140;4.088;2022-10-16T04:58:07;8.27;;;2.35;;
32216;SDS011;18709;51.140;4.088;2022-10-16T05:00:33;6.85;;;2.38;;
32216;SDS011;18709;51.140;4.088;2022-10-16T05:02:59;5.75;;;2.00;;
32216;SDS011;18709;51.140;4.088;2022-10-16T05:05:25;5.90;;;1.90;;
32216;SDS011;18709;51.140;4.088;2022-10-16T05:07:52;5.07;;;1.75;;
32216;SDS011;18709;51.140;4.088;2022-10-16T05:10:17;4.30;;;2.00;;
32216;SDS011;18709;51.140;4.088;2022-10-16T05:12:43;5.22;;;1.83;;
32216;SDS011;18709;51.140;4.088;2022-10-16T05:15:09;3.58;;;1.45;;
32216;SDS011;18709;51.140;4.088;2022-10-16T05:17:35;7.00;;;1.88;;
32216;SDS011;18709;51.140;4.088;2022-10-16T05:20:01;9.45;;;2.10;;
32216;SDS011;18709;51.140;4.088;2022-10-16T05:22:27;5.80;;;1.90;;
32216;SDS011;18709;51.140;4.088;2022-10-16T05:24:52;5.63;;;2.00;;
32216;SDS011;18709;51.140;4.088;2022-10-16T05:27:18;3.45;;;2.03;;
32216;SDS011;18709;51.140;4.088;2022-10-16T05:29:47;5.07;;;1.90;;
32216;SDS011;18709;51.140;4.088;2022-10-16T05:32:14;5.25;;;2.00;;
32216;SDS011;18709;51.140;4.088;2022-10-16T05:34:40;5.35;;;1.90;;
32216;SDS011;18709;51.140;4.088;2022-10-16T05:37:06;7.40;;;1.83;;
32216;SDS011;18709;51.140;4.088;2022-10-16T05:39:31;6.15;;;2.88;;
32216;SDS011;18709;51.140;4.088;2022-10-16T05:41:57;3.58;;;1.80;;
32216;SDS011;18709;51.140;4.088;2022-10-16T05:44:23;6.07;;;2.00;;
32216;SDS011;18709;51.140;4.088;2022-10-16T05:46:48;5.78;;;2.03;;
32216;SDS011;18709;51.140;4.088;2022-10-16T05:49:14;5.53;;;1.95;;
32216;SDS011;18709;51.140;4.088;2022-10-16T05:51:40;4.47;;;1.83;;
32216;SDS011;18709;51.140;4.088;2022-10-16T05:54:06;3.55;;;1.75;;
32216;SDS011;18709;51.140;4.088;2022-10-16T05:56:32;2.50;;;1.77;;
32216;SDS011;18709;51.140;4.088;2022-10-16T05:58:58;5.15;;;1.95;;
32216;SDS011;18709;51.140;4.088;2022-10-16T06:01:24;8.48;;;2.00;;
32216;SDS011;18709;51.140;4.088;2022-10-16T06:03:53;7.93;;;1.80;;
32216;SDS011;18709;51.140;4.088;2022-10-16T06:06:19;10.45;;;1.88;;
32216;SDS011;18709;51.140;4.088;2022-10-16T06:08:48;8.93;;;1.98;;
32216;SDS011;18709;51.140;4.088;2022-10-16T06:11:18;4.15;;;1.85;;
32216;SDS011;18709;51.140;4.088;2022-10-16T06:13:49;4.57;;;1.70;;
32216;SDS011;18709;51.140;4.088;2022-10-16T06:16:15;4.55;;;1.83;;
32216;SDS011;18709;51.140;4.088;2022-10-16T06:18:41;5.00;;;1.88;;
32216;SDS011;18709;51.140;4.088;2022-10-16T06:21:07;7.82;;;1.90;;
32216;SDS011;18709;51.140;4.088;2022-10-16T06:23:35;4.53;;;1.65;;
32216;SDS011;18709;51.140;4.088;2022-10-16T06:26:10;3.53;;;1.63;;
32216;SDS011;18709;51.140;4.088;2022-10-16T06:28:38;4.68;;;1.80;;
32216;SDS011;18709;51.140;4.088;2022-10-16T06:31:04;5.10;;;1.58;;
32216;SDS011;18709;51.140;4.088;2022-10-16T06:33:32;3.42;;;1.55;;
32216;SDS011;18709;51.140;4.088;2022-10-16T06:36:04;4.18;;;1.65;;
32216;SDS011;18709;51.140;4.088;2022-10-16T06:38:35;5.65;;;1.80;;
32216;SDS011;18709;51.140;4.088;2022-10-16T06:41:01;5.13;;;1.52;;
32216;SDS011;18709;51.140;4.088;2022-10-16T06:43:31;4.40;;;1.70;;
32216;SDS011;18709;51.140;4.088;2022-10-16T06:45:57;3.63;;;2.08;;
32216;SDS011;18709;51.140;4.088;2022-10-16T06:48:24;3.90;;;1.67;;
32216;SDS011;18709;51.140;4.088;2022-10-16T06:50:57;7.40;;;1.67;;
32216;SDS011;18709;51.140;4.088;2022-10-16T06:53:24;6.82;;;1.70;;
32216;SDS011;18709;51.140;4.088;2022-10-16T06:55:51;4.25;;;1.60;;
32216;SDS011;18709;51.140;4.088;2022-10-16T06:58:16;4.07;;;1.83;;
32216;SDS011;18709;51.140;4.088;2022-10-16T07:00:42;4.63;;;1.75;;
32216;SDS011;18709;51.140;4.088;2022-10-16T07:03:08;7.50;;;2.00;;
32216;SDS011;18709;51.140;4.088;2022-10-16T07:05:43;4.50;;;1.38;;
32216;SDS011;18709;51.140;4.088;2022-10-16T07:08:08;3.75;;;1.73;;
32216;SDS011;18709;51.140;4.088;2022-10-16T07:10:35;10.25;;;2.47;;
32216;SDS011;18709;51.140;4.088;2022-10-16T07:13:01;3.92;;;1.60;;
32216;SDS011;18709;51.140;4.088;2022-10-16T07:15:26;6.18;;;1.85;;
32216;SDS011;18709;51.140;4.088;2022-10-16T07:17:52;7.15;;;1.80;;
32216;SDS011;18709;51.140;4.088;2022-10-16T07:20:18;4.63;;;2.00;;
32216;SDS011;18709;51.140;4.088;2022-10-16T07:22:44;3.05;;;1.65;;
32216;SDS011;18709;51.140;4.088;2022-10-16T07:25:10;6.72;;;2.08;;
32216;SDS011;18709;51.140;4.088;2022-10-16T07:27:36;4.93;;;1.88;;
32216;SDS011;18709;51.140;4.088;2022-10-16T07:30:02;5.50;;;1.83;;
32216;SDS011;18709;51.140;4.088;2022-10-16T07:32:28;7.10;;;1.98;;
32216;SDS011;18709;51.140;4.088;2022-10-16T07:34:54;9.75;;;1.90;;
32216;SDS011;18709;51.140;4.088;2022-10-16T07:37:20;8.88;;;2.17;;
32216;SDS011;18709;51.140;4.088;2022-10-16T07:39:47;8.18;;;2.42;;
32216;SDS011;18709;51.140;4.088;2022-10-16T07:42:13;9.95;;;2.35;;
32216;SDS011;18709;51.140;4.088;2022-10-16T07:44:38;6.22;;;2.33;;
32216;SDS011;18709;51.140;4.088;2022-10-16T07:47:05;8.85;;;2.00;;
32216;SDS011;18709;51.140;4.088;2022-10-16T07:49:30;4.75;;;1.90;;
32216;SDS011;18709;51.140;4.088;2022-10-16T07:51:56;6.57;;;2.30;;
32216;SDS011;18709;51.140;4.088;2022-10-16T07:54:22;9.00;;;2.20;;
32216;SDS011;18709;51.140;4.088;2022-10-16T07:56:48;12.07;;;2.03;;
32216;SDS011;18709;51.140;4.088;2022-10-16T07:59:13;9.55;;;2.33;;
32216;SDS011;18709;51.140;4.088;2022-10-16T08:01:39;2.50;;;0.93;;
32216;SDS011;18709;51.140;4.088;2022-10-16T08:04:06;4.82;;;1.52;;
32216;SDS011;18709;51.140;4.088;2022-10-16T08:06:35;8.23;;;1.42;;
32216;SDS011;18709;51.140;4.088;2022-10-16T08:09:03;6.80;;;1.90;;
32216;SDS011;18709;51.140;4.088;2022-10-16T08:11:29;5.43;;;2.08;;
32216;SDS011;18709;51.140;4.088;2022-10-16T08:13:55;6.03;;;1.90;;
32216;SDS011;18709;51.140;4.088;2022-10-16T08:16:20;4.80;;;1.48;;
32216;SDS011;18709;51.140;4.088;2022-10-16T08:18:46;5.53;;;1.60;;
32216;SDS011;18709;51.140;4.088;2022-10-16T08:21:15;5.63;;;2.00;;
32216;SDS011;18709;51.140;4.088;2022-10-16T08:23:42;6.45;;;1.63;;
32216;SDS011;18709;51.140;4.088;2022-10-16T08:26:09;8.52;;;2.05;;
32216;SDS011;18709;51.140;4.088;2022-10-16T08:28:35;2.78;;;1.45;;
32216;SDS011;18709;51.140;4.088;2022-10-16T08:31:08;9.15;;;2.20;;
32216;SDS011;18709;51.140;4.088;2022-10-16T08:33:35;8.82;;;1.70;;
32216;SDS011;18709;51.140;4.088;2022-10-16T08:36:02;6.35;;;2.00;;
32216;SDS011;18709;51.140;4.088;2022-10-16T08:38:29;6.28;;;1.95;;
32216;SDS011;18709;51.140;4.088;2022-10-16T08:40:56;13.60;;;2.17;;
32216;SDS011;18709;51.140;4.088;2022-10-16T08:43:54;8.77;;;1.80;;
32216;SDS011;18709;51.140;4.088;2022-10-16T08:49:23;5.68;;;2.20;;
32216;SDS011;18709;51.140;4.088;2022-10-16T08:51:49;8.25;;;1.60;;
32216;SDS011;18709;51.140;4.088;2022-10-16T08:54:29;9.07;;;1.70;;
32216;SDS011;18709;51.140;4.088;2022-10-16T08:57:08;5.93;;;1.50;;
32216;SDS011;18709;51.140;4.088;2022-10-16T08:59:37;10.27;;;1.90;;
32216;SDS011;18709;51.140;4.088;2022-10-16T09:02:02;10.82;;;1.73;;
32216;SDS011;18709;51.140;4.088;2022-10-16T09:12:51;5.07;;;1.63;;
32216;SDS011;18709;51.140;4.088;2022-10-16T09:21:04;10.13;;;2.22;;
32216;SDS011;18709;51.140;4.088;2022-10-16T09:23:43;5.28;;;1.67;;
32216;SDS011;18709;51.140;4.088;2022-10-16T09:26:10;7.30;;;1.73;;
32216;SDS011;18709;51.140;4.088;2022-10-16T09:28:38;5.35;;;1.42;;
32216;SDS011;18709;51.140;4.088;2022-10-16T09:31:03;8.15;;;1.67;;
32216;SDS011;18709;51.140;4.088;2022-10-16T09:33:30;5.53;;;1.83;;
32216;SDS011;18709;51.140;4.088;2022-10-16T09:35:59;8.73;;;1.83;;
32216;SDS011;18709;51.140;4.088;2022-10-16T09:38:32;9.30;;;1.90;;
32216;SDS011;18709;51.140;4.088;2022-10-16T09:41:01;9.68;;;2.13;;
32216;SDS011;18709;51.140;4.088;2022-10-16T09:43:51;6.07;;;1.23;;
32216;SDS011;18709;51.140;4.088;2022-10-16T09:48:53;9.82;;;2.42;;
32216;SDS011;18709;51.140;4.088;2022-10-16T09:51:23;5.85;;;1.67;;
32216;SDS011;18709;51.140;4.088;2022-10-16T09:54:00;6.20;;;1.70;;
32216;SDS011;18709;51.140;4.088;2022-10-16T09:56:37;5.88;;;1.45;;
32216;SDS011;18709;51.140;4.088;2022-10-16T09:59:13;11.23;;;1.65;;
32216;SDS011;18709;51.140;4.088;2022-10-16T10:01:42;7.25;;;1.75;;
32216;SDS011;18709;51.140;4.088;2022-10-16T10:04:11;8.27;;;2.10;;
32216;SDS011;18709;51.140;4.088;2022-10-16T10:06:40;10.55;;;2.13;;
32216;SDS011;18709;51.140;4.088;2022-10-16T10:11:52;14.10;;;1.73;;
32216;SDS011;18709;51.140;4.088;2022-10-16T10:19:37;12.02;;;1.83;;
32216;SDS011;18709;51.140;4.088;2022-10-16T10:25:12;11.57;;;2.08;;
32216;SDS011;18709;51.140;4.088;2022-10-16T10:30:40;9.32;;;1.67;;
32216;SDS011;18709;51.140;4.088;2022-10-16T10:39:12;10.05;;;2.20;;
32216;SDS011;18709;51.140;4.088;2022-10-16T10:47:27;9.25;;;1.92;;
32216;SDS011;18709;51.140;4.088;2022-10-16T10:50:07;11.55;;;1.95;;
32216;SDS011;18709;51.140;4.088;2022-10-16T10:55:28;9.88;;;1.60;;
32216;SDS011;18709;51.140;4.088;2022-10-16T11:06:27;14.00;;;2.13;;
32216;SDS011;18709;51.140;4.088;2022-10-16T11:09:15;11.65;;;1.65;;
32216;SDS011;18709;51.140;4.088;2022-10-16T11:11:44;13.05;;;2.20;;
32216;SDS011;18709;51.140;4.088;2022-10-16T11:14:17;9.50;;;1.65;;
32216;SDS011;18709;51.140;4.088;2022-10-16T11:16:55;12.15;;;2.00;;
32216;SDS011;18709;51.140;4.088;2022-10-16T11:30:21;10.52;;;1.50;;
32216;SDS011;18709;51.140;4.088;2022-10-16T11:33:10;5.38;;;1.38;;
32216;SDS011;18709;51.140;4.088;2022-10-16T11:35:44;12.40;;;2.20;;
32216;SDS011;18709;51.140;4.088;2022-10-16T11:38:48;6.10;;;1.38;;
32216;SDS011;18709;51.140;4.088;2022-10-16T11:44:16;6.35;;;1.90;;
32216;SDS011;18709;51.140;4.088;2022-10-16T11:49:42;4.63;;;1.40;;
32216;SDS011;18709;51.140;4.088;2022-10-16T11:52:25;5.97;;;1.50;;
32216;SDS011;18709;51.140;4.088;2022-10-16T11:55:15;8.55;;;1.20;;
32216;SDS011;18709;51.140;4.088;2022-10-16T11:58:06;10.23;;;1.60;;
32216;SDS011;18709;51.140;4.088;2022-10-16T12:00:40;6.68;;;1.52;;
32216;SDS011;18709;51.140;4.088;2022-10-16T12:08:14;9.35;;;1.48;;
32216;SDS011;18709;51.140;4.088;2022-10-16T12:10:42;4.85;;;1.20;;
32216;SDS011;18709;51.140;4.088;2022-10-16T12:13:33;5.43;;;1.20;;
32216;SDS011;18709;51.140;4.088;2022-10-16T12:18:41;7.45;;;1.30;;
32216;SDS011;18709;51.140;4.088;2022-10-16T12:21:10;7.85;;;1.25;;
32216;SDS011;18709;51.140;4.088;2022-10-16T12:23:53;7.70;;;1.40;;
32216;SDS011;18709;51.140;4.088;2022-10-16T12:26:24;8.93;;;1.65;;
32216;SDS011;18709;51.140;4.088;2022-10-16T12:28:55;8.40;;;1.30;;
32216;SDS011;18709;51.140;4.088;2022-10-16T12:31:22;6.32;;;1.13;;
32216;SDS011;18709;51.140;4.088;2022-10-16T12:33:55;9.55;;;1.52;;
32216;SDS011;18709;51.140;4.088;2022-10-16T12:36:27;6.63;;;1.63;;
32216;SDS011;18709;51.140;4.088;2022-10-16T12:39:00;7.32;;;1.52;;
32216;SDS011;18709;51.140;4.088;2022-10-16T12:41:34;5.97;;;1.60;;
32216;SDS011;18709;51.140;4.088;2022-10-16T12:44:04;3.80;;;1.00;;
32216;SDS011;18709;51.140;4.088;2022-10-16T12:46:46;9.20;;;1.80;;
32216;SDS011;18709;51.140;4.088;2022-10-16T12:51:37;3.67;;;1.10;;
32216;SDS011;18709;51.140;4.088;2022-10-16T12:54:04;7.68;;;1.27;;
32216;SDS011;18709;51.140;4.088;2022-10-16T12:56:41;7.05;;;1.50;;
32216;SDS011;18709;51.140;4.088;2022-10-16T12:59:35;7.05;;;1.42;;
32216;SDS011;18709;51.140;4.088;2022-10-16T13:05:03;3.92;;;0.90;;
32216;SDS011;18709;51.140;4.088;2022-10-16T13:10:09;4.70;;;1.08;;
32216;SDS011;18709;51.140;4.088;2022-10-16T13:18:13;3.60;;;1.30;;
32216;SDS011;18709;51.140;4.088;2022-10-16T13:28:51;3.58;;;1.20;;
32216;SDS011;18709;51.140;4.088;2022-10-16T13:31:21;7.78;;;1.10;;
32216;SDS011;18709;51.140;4.088;2022-10-16T13:33:52;4.95;;;0.80;;
32216;SDS011;18709;51.140;4.088;2022-10-16T13:36:25;4.68;;;1.02;;
32216;SDS011;18709;51.140;4.088;2022-10-16T13:42:00;4.40;;;1.25;;
32216;SDS011;18709;51.140;4.088;2022-10-16T13:44:48;6.28;;;0.98;;
32216;SDS011;18709;51.140;4.088;2022-10-16T13:47:23;4.10;;;1.00;;
32216;SDS011;18709;51.140;4.088;2022-10-16T13:50:04;5.25;;;0.90;;
32216;SDS011;18709;51.140;4.088;2022-10-16T13:52:30;4.28;;;1.38;;
32216;SDS011;18709;51.140;4.088;2022-10-16T13:54:56;4.57;;;1.10;;
32216;SDS011;18709;51.140;4.088;2022-10-16T13:57:23;2.22;;;0.80;;
32216;SDS011;18709;51.140;4.088;2022-10-16T13:59:49;3.63;;;1.00;;
32216;SDS011;18709;51.140;4.088;2022-10-16T14:02:23;4.82;;;1.00;;
32216;SDS011;18709;51.140;4.088;2022-10-16T14:04:51;3.65;;;0.98;;
32216;SDS011;18709;51.140;4.088;2022-10-16T14:07:22;4.63;;;1.20;;
32216;SDS011;18709;51.140;4.088;2022-10-16T14:09:53;4.70;;;1.25;;
32216;SDS011;18709;51.140;4.088;2022-10-16T14:12:20;3.33;;;1.02;;
32216;SDS011;18709;51.140;4.088;2022-10-16T14:14:48;3.90;;;1.08;;
32216;SDS011;18709;51.140;4.088;2022-10-16T14:17:20;7.50;;;1.20;;
32216;SDS011;18709;51.140;4.088;2022-10-16T14:19:50;5.30;;;1.00;;
32216;SDS011;18709;51.140;4.088;2022-10-16T14:22:22;3.83;;;0.73;;
32216;SDS011;18709;51.140;4.088;2022-10-16T14:24:55;4.75;;;0.85;;
32216;SDS011;18709;51.140;4.088;2022-10-16T14:27:34;5.82;;;1.00;;
32216;SDS011;18709;51.140;4.088;2022-10-16T14:32:55;2.83;;;0.82;;
32216;SDS011;18709;51.140;4.088;2022-10-16T14:35:25;3.42;;;0.70;;
32216;SDS011;18709;51.140;4.088;2022-10-16T14:37:59;3.33;;;0.95;;
32216;SDS011;18709;51.140;4.088;2022-10-16T14:40:30;3.63;;;1.33;;
32216;SDS011;18709;51.140;4.088;2022-10-16T14:42:58;3.70;;;0.98;;
32216;SDS011;18709;51.140;4.088;2022-10-16T14:45:27;4.40;;;1.13;;
32216;SDS011;18709;51.140;4.088;2022-10-16T14:47:58;4.63;;;1.15;;
32216;SDS011;18709;51.140;4.088;2022-10-16T14:50:27;4.35;;;1.15;;
32216;SDS011;18709;51.140;4.088;2022-10-16T14:52:53;2.28;;;1.00;;
32216;SDS011;18709;51.140;4.088;2022-10-16T14:55:20;5.88;;;1.10;;
32216;SDS011;18709;51.140;4.088;2022-10-16T14:57:46;2.47;;;0.70;;
32216;SDS011;18709;51.140;4.088;2022-10-16T15:00:22;2.63;;;1.20;;
32216;SDS011;18709;51.140;4.088;2022-10-16T15:02:49;3.53;;;0.82;;
32216;SDS011;18709;51.140;4.088;2022-10-16T15:05:17;3.05;;;0.90;;
32216;SDS011;18709;51.140;4.088;2022-10-16T15:07:45;5.47;;;1.40;;
32216;SDS011;18709;51.140;4.088;2022-10-16T15:10:12;9.10;;;1.23;;
32216;SDS011;18709;51.140;4.088;2022-10-16T15:12:39;3.20;;;1.00;;
32216;SDS011;18709;51.140;4.088;2022-10-16T15:15:14;2.78;;;0.90;;
32216;SDS011;18709;51.140;4.088;2022-10-16T15:17:52;4.90;;;1.23;;
32216;SDS011;18709;51.140;4.088;2022-10-16T15:20:25;2.67;;;1.08;;
32216;SDS011;18709;51.140;4.088;2022-10-16T15:23:03;3.63;;;0.88;;
32216;SDS011;18709;51.140;4.088;2022-10-16T15:28:07;2.08;;;1.17;;
32216;SDS011;18709;51.140;4.088;2022-10-16T15:30:34;5.05;;;1.00;;
32216;SDS011;18709;51.140;4.088;2022-10-16T15:33:00;7.35;;;1.83;;
32216;SDS011;18709;51.140;4.088;2022-10-16T15:35:27;4.68;;;1.60;;
32216;SDS011;18709;51.140;4.088;2022-10-16T15:37:53;6.18;;;1.92;;
32216;SDS011;18709;51.140;4.088;2022-10-16T15:40:19;5.13;;;1.88;;
32216;SDS011;18709;51.140;4.088;2022-10-16T15:42:46;3.85;;;2.08;;
32216;SDS011;18709;51.140;4.088;2022-10-16T15:45:12;7.75;;;1.90;;
32216;SDS011;18709;51.140;4.088;2022-10-16T15:47:38;4.30;;;1.35;;
32216;SDS011;18709;51.140;4.088;2022-10-16T15:50:06;3.83;;;1.50;;
32216;SDS011;18709;51.140;4.088;2022-10-16T15:52:32;7.22;;;1.83;;
32216;SDS011;18709;51.140;4.088;2022-10-16T15:54:58;3.13;;;1.40;;
32216;SDS011;18709;51.140;4.088;2022-10-16T15:57:24;5.30;;;1.35;;
32216;SDS011;18709;51.140;4.088;2022-10-16T15:59:50;5.38;;;1.30;;
32216;SDS011;18709;51.140;4.088;2022-10-16T16:02:16;3.28;;;1.27;;
32216;SDS011;18709;51.140;4.088;2022-10-16T16:04:42;5.65;;;1.55;;
32216;SDS011;18709;51.140;4.088;2022-10-16T16:07:07;4.25;;;1.27;;
32216;SDS011;18709;51.140;4.088;2022-10-16T16:09:33;6.57;;;1.67;;
32216;SDS011;18709;51.140;4.088;2022-10-16T16:11:59;3.42;;;1.23;;
32216;SDS011;18709;51.140;4.088;2022-10-16T16:14:26;4.78;;;1.30;;
32216;SDS011;18709;51.140;4.088;2022-10-16T16:16:55;2.65;;;1.20;;
32216;SDS011;18709;51.140;4.088;2022-10-16T16:19:22;3.17;;;1.13;;
32216;SDS011;18709;51.140;4.088;2022-10-16T16:21:48;2.60;;;1.20;;
32216;SDS011;18709;51.140;4.088;2022-10-16T16:24:15;4.03;;;1.58;;
32216;SDS011;18709;51.140;4.088;2022-10-16T16:26:41;3.67;;;1.60;;
32216;SDS011;18709;51.140;4.088;2022-10-16T16:29:12;4.78;;;1.80;;
32216;SDS011;18709;51.140;4.088;2022-10-16T16:31:40;3.55;;;1.77;;
32216;SDS011;18709;51.140;4.088;2022-10-16T16:34:07;9.05;;;1.80;;
32216;SDS011;18709;51.140;4.088;2022-10-16T16:36:33;4.50;;;1.55;;
32216;SDS011;18709;51.140;4.088;2022-10-16T16:39:00;5.88;;;1.40;;
32216;SDS011;18709;51.140;4.088;2022-10-16T16:41:26;5.93;;;2.10;;
32216;SDS011;18709;51.140;4.088;2022-10-16T16:43:55;5.28;;;1.95;;
32216;SDS011;18709;51.140;4.088;2022-10-16T16:46:26;3.10;;;1.25;;
32216;SDS011;18709;51.140;4.088;2022-10-16T16:48:51;4.72;;;1.80;;
32216;SDS011;18709;51.140;4.088;2022-10-16T16:51:20;7.30;;;2.55;;
32216;SDS011;18709;51.140;4.088;2022-10-16T16:53:49;7.25;;;2.80;;
32216;SDS011;18709;51.140;4.088;2022-10-16T16:56:17;6.53;;;2.70;;
32216;SDS011;18709;51.140;4.088;2022-10-16T16:58:45;7.40;;;3.10;;
32216;SDS011;18709;51.140;4.088;2022-10-16T17:01:12;9.60;;;3.35;;
32216;SDS011;18709;51.140;4.088;2022-10-16T17:03:37;9.93;;;3.15;;
32216;SDS011;18709;51.140;4.088;2022-10-16T17:06:06;7.32;;;3.13;;